sensor_id;sensor_type;location;lat;lon;timestamp;pressure;altitude;pressure_sealevel;temperature;humidity
28289;BME280;15558;50.874;6.964;2022-09-21T00:02:08;102184.56;;;15.03;65.06
28289;BME280;15558;50.874;6.964;2022-09-21T00:04:34;102175.78;;;15.04;65.04
28289;BME280;15558;50.874;6.964;2022-09-21T00:07:00;102179.16;;;15.06;65.09
28289;BME280;15558;50.874;6.964;2022-09-21T00:09:26;102184.59;;;14.98;65.03
28289;BME280;15558;50.874;6.964;2022-09-21T00:11:52;102181.53;;;14.89;65.18
28289;BME280;15558;50.874;6.964;2022-09-21T00:14:18;102167.13;;;14.91;65.09
28289;BME280;15558;50.874;6.964;2022-09-21T00:16:44;102179.03;;;14.88;65.77
28289;BME280;15558;50.874;6.964;2022-09-21T00:19:10;102172.28;;;14.84;65.28
28289;BME280;15558;50.874;6.964;2022-09-21T00:21:37;102175.34;;;14.87;65.52
28289;BME280;15558;50.874;6.964;2022-09-21T00:24:05;102174.56;;;14.82;65.51
28289;BME280;15558;50.874;6.964;2022-09-21T00:26:31;102187.03;;;14.76;65.38
28289;BME280;15558;50.874;6.964;2022-09-21T00:29:00;102179.66;;;14.80;65.53
28289;BME280;15558;50.874;6.964;2022-09-21T00:31:27;102190.41;;;14.78;65.01
28289;BME280;15558;50.874;6.964;2022-09-21T00:33:53;102188.78;;;14.67;64.94
28289;BME280;15558;50.874;6.964;2022-09-21T00:36:22;102180.06;;;14.59;65.20
28289;BME280;15558;50.874;6.964;2022-09-21T00:38:54;102201.25;;;14.56;65.44
28289;BME280;15558;50.874;6.964;2022-09-21T00:41:21;102188.28;;;14.55;65.42
28289;BME280;15558;50.874;6.964;2022-09-21T00:44:30;102184.31;;;14.56;65.45
28289;BME280;15558;50.874;6.964;2022-09-21T00:46:56;102193.66;;;14.52;65.12
28289;BME280;15558;50.874;6.964;2022-09-21T00:49:24;102189.16;;;14.51;65.22
28289;BME280;15558;50.874;6.964;2022-09-21T00:51:52;102187.75;;;14.48;65.16
28289;BME280;15558;50.874;6.964;2022-09-21T00:54:25;102195.69;;;14.46;65.01
28289;BME280;15558;50.874;6.964;2022-09-21T00:56:54;102195.38;;;14.48;65.36
28289;BME280;15558;50.874;6.964;2022-09-21T00:59:21;102186.63;;;14.49;65.20
28289;BME280;15558;50.874;6.964;2022-09-21T01:01:47;102193.41;;;14.48;65.45
28289;BME280;15558;50.874;6.964;2022-09-21T01:04:14;102195.69;;;14.46;65.11
28289;BME280;15558;50.874;6.964;2022-09-21T01:06:43;102185.78;;;14.44;65.16
28289;BME280;15558;50.874;6.964;2022-09-21T01:09:09;102187.78;;;14.43;64.85
28289;BME280;15558;50.874;6.964;2022-09-21T01:11:58;102184.69;;;14.40;64.50
28289;BME280;15558;50.874;6.964;2022-09-21T01:17:17;102181.59;;;14.37;65.02
28289;BME280;15558;50.874;6.964;2022-09-21T01:23:12;102189.25;;;14.31;64.93
28289;BME280;15558;50.874;6.964;2022-09-21T01:30:49;102188.13;;;14.27;64.89
28289;BME280;15558;50.874;6.964;2022-09-21T01:33:24;102202.25;;;14.27;64.94
28289;BME280;15558;50.874;6.964;2022-09-21T01:35:56;102198.31;;;14.28;65.59
28289;BME280;15558;50.874;6.964;2022-09-21T01:38:42;102192.41;;;14.20;65.70
28289;BME280;15558;50.874;6.964;2022-09-21T01:41:12;102195.78;;;14.17;65.42
28289;BME280;15558;50.874;6.964;2022-09-21T01:43:42;102193.25;;;14.20;65.06
28289;BME280;15558;50.874;6.964;2022-09-21T01:46:14;102202.03;;;14.14;65.28
28289;BME280;15558;50.874;6.964;2022-09-21T01:48:45;102209.09;;;14.11;65.18
28289;BME280;15558;50.874;6.964;2022-09-21T01:51:13;102204.03;;;14.13;65.40
28289;BME280;15558;50.874;6.964;2022-09-21T01:53:51;102197.78;;;14.16;65.21
28289;BME280;15558;50.874;6.964;2022-09-21T01:56:30;102191.91;;;14.03;65.45
28289;BME280;15558;50.874;6.964;2022-09-21T01:59:12;102196.41;;;13.99;65.47
28289;BME280;15558;50.874;6.964;2022-09-21T02:01:48;102209.41;;;13.95;65.18
28289;BME280;15558;50.874;6.964;2022-09-21T02:04:16;102206.59;;;13.95;64.91
28289;BME280;15558;50.874;6.964;2022-09-21T02:06:45;102198.13;;;13.95;65.22
28289;BME280;15558;50.874;6.964;2022-09-21T02:09:11;102201.78;;;13.96;65.24
28289;BME280;15558;50.874;6.964;2022-09-21T02:11:37;102198.69;;;13.87;65.29
28289;BME280;15558;50.874;6.964;2022-09-21T02:14:10;102205.19;;;13.83;65.04
28289;BME280;15558;50.874;6.964;2022-09-21T02:17:30;102198.09;;;13.90;65.43
28289;BME280;15558;50.874;6.964;2022-09-21T02:19:43;102205.75;;;13.90;65.49
28289;BME280;15558;50.874;6.964;2022-09-21T02:25:00;102205.47;;;13.81;65.73
28289;BME280;15558;50.874;6.964;2022-09-21T02:30:21;102207.44;;;13.86;65.70
28289;BME280;15558;50.874;6.964;2022-09-21T02:35:43;102205.16;;;13.98;66.67
28289;BME280;15558;50.874;6.964;2022-09-21T02:40:51;102200.09;;;13.95;66.79
28289;BME280;15558;50.874;6.964;2022-09-21T02:43:29;102200.66;;;13.92;66.65
28289;BME280;15558;50.874;6.964;2022-09-21T02:46:16;102195.59;;;13.89;66.91
28289;BME280;15558;50.874;6.964;2022-09-21T02:48:47;102206.31;;;13.92;66.39
28289;BME280;15558;50.874;6.964;2022-09-21T02:51:22;102198.38;;;13.94;66.70
28289;BME280;15558;50.874;6.964;2022-09-21T02:53:51;102199.81;;;13.91;66.38
28289;BME280;15558;50.874;6.964;2022-09-21T02:56:19;102201.25;;;13.89;66.44
28289;BME280;15558;50.874;6.964;2022-09-21T02:58:49;102199.28;;;13.84;66.11
28289;BME280;15558;50.874;6.964;2022-09-21T03:01:19;102202.66;;;13.86;66.10
28289;BME280;15558;50.874;6.964;2022-09-21T03:03:47;102200.97;;;13.75;66.20
28289;BME280;15558;50.874;6.964;2022-09-21T03:06:13;102192.50;;;13.75;66.26
28289;BME280;15558;50.874;6.964;2022-09-21T03:08:39;102187.44;;;13.67;66.11
28289;BME280;15558;50.874;6.964;2022-09-21T03:11:06;102181.25;;;13.66;66.25
28289;BME280;15558;50.874;6.964;2022-09-21T03:13:32;102191.69;;;13.60;66.07
28289;BME280;15558;50.874;6.964;2022-09-21T03:16:04;102198.75;;;13.63;65.89
28289;BME280;15558;50.874;6.964;2022-09-21T03:18:30;102197.06;;;13.57;65.83
28289;BME280;15558;50.874;6.964;2022-09-21T03:20:56;102197.38;;;13.55;65.90
28289;BME280;15558;50.874;6.964;2022-09-21T03:23:23;102193.97;;;13.58;66.14
28289;BME280;15558;50.874;6.964;2022-09-21T03:25:49;102202.16;;;13.60;65.76
28289;BME280;15558;50.874;6.964;2022-09-21T03:28:17;102205.53;;;13.52;66.01
28289;BME280;15558;50.874;6.964;2022-09-21T03:30:43;102202.16;;;13.50;65.89
28289;BME280;15558;50.874;6.964;2022-09-21T03:33:09;102206.38;;;13.42;65.86
28289;BME280;15558;50.874;6.964;2022-09-21T03:35:36;102198.78;;;13.38;65.94
28289;BME280;15558;50.874;6.964;2022-09-21T03:38:02;102202.16;;;13.35;65.46
28289;BME280;15558;50.874;6.964;2022-09-21T03:40:28;102201.03;;;13.36;65.97
28289;BME280;15558;50.874;6.964;2022-09-21T03:42:54;102206.13;;;13.39;65.53
28289;BME280;15558;50.874;6.964;2022-09-21T03:45:20;102209.50;;;13.36;65.24
28289;BME280;15558;50.874;6.964;2022-09-21T03:47:55;102213.19;;;13.27;65.60
28289;BME280;15558;50.874;6.964;2022-09-21T03:50:23;102206.13;;;13.24;65.11
28289;BME280;15558;50.874;6.964;2022-09-21T03:52:49;102208.66;;;13.31;65.56
28289;BME280;15558;50.874;6.964;2022-09-21T03:55:15;102202.16;;;13.25;66.03
28289;BME280;15558;50.874;6.964;2022-09-21T03:57:41;102201.59;;;13.23;66.10
28289;BME280;15558;50.874;6.964;2022-09-21T04:00:08;102201.88;;;13.32;66.38
28289;BME280;15558;50.874;6.964;2022-09-21T04:02:36;102201.88;;;13.36;66.51
28289;BME280;15558;50.874;6.964;2022-09-21T04:05:03;102204.13;;;13.39;66.66
28289;BME280;15558;50.874;6.964;2022-09-21T04:07:30;102193.13;;;13.48;67.02
28289;BME280;15558;50.874;6.964;2022-09-21T04:09:59;102197.06;;;13.52;66.81
28289;BME280;15558;50.874;6.964;2022-09-21T04:12:25;102210.06;;;13.48;67.17
28289;BME280;15558;50.874;6.964;2022-09-21T04:14:52;102206.66;;;13.51;67.19
28289;BME280;15558;50.874;6.964;2022-09-21T04:17:18;102210.91;;;13.53;67.28
28289;BME280;15558;50.874;6.964;2022-09-21T04:19:44;102220.47;;;13.57;66.72
28289;BME280;15558;50.874;6.964;2022-09-21T04:22:11;102211.72;;;13.59;66.90
28289;BME280;15558;50.874;6.964;2022-09-21T04:24:39;102216.81;;;13.62;67.38
28289;BME280;15558;50.874;6.964;2022-09-21T04:27:07;102210.31;;;13.61;67.33
28289;BME280;15558;50.874;6.964;2022-09-21T04:29:33;102218.50;;;13.58;67.47
28289;BME280;15558;50.874;6.964;2022-09-21T04:31:59;102219.63;;;13.47;68.05
28289;BME280;15558;50.874;6.964;2022-09-21T04:34:25;102214.00;;;13.47;68.19
28289;BME280;15558;50.874;6.964;2022-09-21T04:36:51;102220.22;;;13.44;68.26
28289;BME280;15558;50.874;6.964;2022-09-21T04:39:19;102223.31;;;13.42;68.21
28289;BME280;15558;50.874;6.964;2022-09-21T04:41:45;102216.81;;;13.42;68.18
28289;BME280;15558;50.874;6.964;2022-09-21T04:44:11;102218.81;;;13.41;68.73
28289;BME280;15558;50.874;6.964;2022-09-21T04:46:37;102224.44;;;13.41;68.79
28289;BME280;15558;50.874;6.964;2022-09-21T04:49:03;102226.97;;;13.48;68.17
28289;BME280;15558;50.874;6.964;2022-09-21T04:51:29;102226.41;;;13.51;68.11
28289;BME280;15558;50.874;6.964;2022-09-21T04:53:56;102223.31;;;13.42;68.36
28289;BME280;15558;50.874;6.964;2022-09-21T04:56:22;102234.88;;;13.41;68.50
28289;BME280;15558;50.874;6.964;2022-09-21T04:58:48;102225.84;;;13.44;68.73
28289;BME280;15558;50.874;6.964;2022-09-21T05:01:13;102234.03;;;13.45;68.25
28289;BME280;15558;50.874;6.964;2022-09-21T05:03:39;102227.25;;;13.36;68.52
28289;BME280;15558;50.874;6.964;2022-09-21T05:06:05;102232.63;;;13.38;68.11
28289;BME280;15558;50.874;6.964;2022-09-21T05:08:32;102235.47;;;13.43;68.46
28289;BME280;15558;50.874;6.964;2022-09-21T05:11:17;102238.84;;;13.45;68.39
28289;BME280;15558;50.874;6.964;2022-09-21T05:13:44;102254.06;;;13.39;68.37
28289;BME280;15558;50.874;6.964;2022-09-21T05:16:10;102244.75;;;13.33;68.61
28289;BME280;15558;50.874;6.964;2022-09-21T05:18:36;102249.53;;;13.38;68.49
28289;BME280;15558;50.874;6.964;2022-09-21T05:21:03;102254.31;;;13.57;68.13
28289;BME280;15558;50.874;6.964;2022-09-21T05:23:30;102251.25;;;13.44;68.29
28289;BME280;15558;50.874;6.964;2022-09-21T05:25:57;102262.22;;;13.35;68.86
28289;BME280;15558;50.874;6.964;2022-09-21T05:28:24;102254.34;;;13.32;68.90
28289;BME280;15558;50.874;6.964;2022-09-21T05:31:01;102260.25;;;13.31;69.04
28289;BME280;15558;50.874;6.964;2022-09-21T05:33:28;102269.84;;;13.30;68.78
28289;BME280;15558;50.874;6.964;2022-09-21T05:36:15;102271.81;;;13.30;69.09
28289;BME280;15558;50.874;6.964;2022-09-21T05:38:51;102269.03;;;13.34;68.82
28289;BME280;15558;50.874;6.964;2022-09-21T05:41:17;102274.94;;;13.38;68.91
28289;BME280;15558;50.874;6.964;2022-09-21T05:43:43;102262.81;;;13.37;68.62
28289;BME280;15558;50.874;6.964;2022-09-21T05:46:52;102270.41;;;13.42;69.01
28289;BME280;15558;50.874;6.964;2022-09-21T05:49:21;102274.38;;;13.41;68.90
28289;BME280;15558;50.874;6.964;2022-09-21T06:00:17;102277.19;;;13.51;69.21
28289;BME280;15558;50.874;6.964;2022-09-21T06:05:24;102282.81;;;13.51;69.61
28289;BME280;15558;50.874;6.964;2022-09-21T06:07:50;102289.31;;;13.41;70.01
28289;BME280;15558;50.874;6.964;2022-09-21T06:10:16;102288.19;;;13.47;69.84
28289;BME280;15558;50.874;6.964;2022-09-21T06:12:42;102292.69;;;13.48;69.56
28289;BME280;15558;50.874;6.964;2022-09-21T06:15:11;102294.13;;;13.61;69.69
28289;BME280;15558;50.874;6.964;2022-09-21T06:17:38;102293.81;;;13.67;69.16
28289;BME280;15558;50.874;6.964;2022-09-21T06:20:04;102291.00;;;13.67;69.02
28289;BME280;15558;50.874;6.964;2022-09-21T06:22:32;102294.13;;;13.70;68.50
28289;BME280;15558;50.874;6.964;2022-09-21T06:24:58;102305.69;;;13.69;68.69
28289;BME280;15558;50.874;6.964;2022-09-21T06:27:24;102298.91;;;13.75;68.33
28289;BME280;15558;50.874;6.964;2022-09-21T06:29:50;102303.44;;;13.76;68.60
28289;BME280;15558;50.874;6.964;2022-09-21T06:32:51;102311.31;;;13.69;68.68
28289;BME280;15558;50.874;6.964;2022-09-21T06:35:17;102302.88;;;13.74;68.18
28289;BME280;15558;50.874;6.964;2022-09-21T06:37:43;102307.38;;;13.80;67.98
28289;BME280;15558;50.874;6.964;2022-09-21T06:40:09;102309.91;;;13.81;67.81
28289;BME280;15558;50.874;6.964;2022-09-21T06:42:35;102311.59;;;13.77;68.18
28289;BME280;15558;50.874;6.964;2022-09-21T06:45:01;102298.31;;;13.88;67.92
28289;BME280;15558;50.874;6.964;2022-09-21T06:47:28;102304.28;;;13.86;67.37
28289;BME280;15558;50.874;6.964;2022-09-21T06:49:53;102319.22;;;13.77;68.06
28289;BME280;15558;50.874;6.964;2022-09-21T06:52:20;102315.00;;;13.89;67.72
28289;BME280;15558;50.874;6.964;2022-09-21T06:54:45;102309.94;;;13.86;67.17
28289;BME280;15558;50.874;6.964;2022-09-21T06:57:12;102315.28;;;13.93;67.18
28289;BME280;15558;50.874;6.964;2022-09-21T06:59:38;102313.56;;;13.92;67.19
28289;BME280;15558;50.874;6.964;2022-09-21T07:02:04;102314.16;;;13.89;67.43
28289;BME280;15558;50.874;6.964;2022-09-21T07:04:29;102315.56;;;13.91;67.31
28289;BME280;15558;50.874;6.964;2022-09-21T07:06:56;102311.59;;;13.92;67.37
28289;BME280;15558;50.874;6.964;2022-09-21T07:09:22;102315.25;;;13.88;68.23
28289;BME280;15558;50.874;6.964;2022-09-21T07:11:48;102315.28;;;13.83;67.89
28289;BME280;15558;50.874;6.964;2022-09-21T07:14:14;102317.25;;;13.87;68.14
28289;BME280;15558;50.874;6.964;2022-09-21T07:16:40;102313.88;;;13.95;67.83
28289;BME280;15558;50.874;6.964;2022-09-21T07:19:06;102322.03;;;13.92;68.41
28289;BME280;15558;50.874;6.964;2022-09-21T07:21:32;102323.47;;;13.89;68.22
28289;BME280;15558;50.874;6.964;2022-09-21T07:23:58;102320.94;;;13.93;68.40
28289;BME280;15558;50.874;6.964;2022-09-21T07:26:24;102316.16;;;14.03;68.07
28289;BME280;15558;50.874;6.964;2022-09-21T07:28:50;102322.34;;;14.10;67.98
28289;BME280;15558;50.874;6.964;2022-09-21T07:31:16;102314.97;;;14.24;68.27
28289;BME280;15558;50.874;6.964;2022-09-21T07:33:43;102320.09;;;14.07;68.39
28289;BME280;15558;50.874;6.964;2022-09-21T07:36:11;102310.75;;;14.06;68.91
28289;BME280;15558;50.874;6.964;2022-09-21T07:38:42;102316.09;;;14.23;68.64
28289;BME280;15558;50.874;6.964;2022-09-21T07:41:10;102315.56;;;14.16;67.89
28289;BME280;15558;50.874;6.964;2022-09-21T07:43:37;102319.50;;;14.15;68.30
28289;BME280;15558;50.874;6.964;2022-09-21T07:46:07;102317.81;;;14.24;68.25
28289;BME280;15558;50.874;6.964;2022-09-21T07:48:33;102319.22;;;14.26;68.18
28289;BME280;15558;50.874;6.964;2022-09-21T07:51:02;102319.47;;;14.25;68.45
28289;BME280;15558;50.874;6.964;2022-09-21T07:53:29;102316.09;;;14.28;68.31
28289;BME280;15558;50.874;6.964;2022-09-21T07:56:01;102322.25;;;14.49;67.33
28289;BME280;15558;50.874;6.964;2022-09-21T07:58:27;102314.91;;;14.48;67.25
28289;BME280;15558;50.874;6.964;2022-09-21T08:01:11;102321.97;;;14.46;67.53
28289;BME280;15558;50.874;6.964;2022-09-21T08:03:38;102312.66;;;14.36;68.08
28289;BME280;15558;50.874;6.964;2022-09-21T08:06:04;102318.06;;;14.27;68.33
28289;BME280;15558;50.874;6.964;2022-09-21T08:08:30;102318.38;;;14.16;69.36
28289;BME280;15558;50.874;6.964;2022-09-21T08:11:01;102319.78;;;14.08;69.52
28289;BME280;15558;50.874;6.964;2022-09-21T08:13:28;102316.94;;;14.28;69.66
28289;BME280;15558;50.874;6.964;2022-09-21T08:15:58;102322.31;;;14.25;69.39
28289;BME280;15558;50.874;6.964;2022-09-21T08:18:24;102332.19;;;14.32;69.12
28289;BME280;15558;50.874;6.964;2022-09-21T08:20:56;102314.91;;;14.48;68.92
28289;BME280;15558;50.874;6.964;2022-09-21T08:23:22;102328.72;;;14.50;69.34
28289;BME280;15558;50.874;6.964;2022-09-21T08:25:48;102319.09;;;14.61;69.04
28289;BME280;15558;50.874;6.964;2022-09-21T08:28:14;102322.72;;;14.76;68.93
28289;BME280;15558;50.874;6.964;2022-09-21T08:30:41;102332.03;;;14.81;68.85
28289;BME280;15558;50.874;6.964;2022-09-21T08:33:07;102330.00;;;14.87;68.29
28289;BME280;15558;50.874;6.964;2022-09-21T08:35:34;102322.88;;;14.99;67.69
28289;BME280;15558;50.874;6.964;2022-09-21T08:38:01;102323.72;;;15.00;68.38
28289;BME280;15558;50.874;6.964;2022-09-21T08:40:27;102335.56;;;15.11;68.08
28289;BME280;15558;50.874;6.964;2022-09-21T08:43:12;102327.00;;;15.26;67.53
28289;BME280;15558;50.874;6.964;2022-09-21T08:45:42;102334.59;;;15.31;67.42
28289;BME280;15558;50.874;6.964;2022-09-21T08:48:13;102323.50;;;15.39;67.21
28289;BME280;15558;50.874;6.964;2022-09-21T08:50:52;102321.97;;;15.56;67.36
28289;BME280;15558;50.874;6.964;2022-09-21T08:53:31;102319.19;;;15.84;66.73
28289;BME280;15558;50.874;6.964;2022-09-21T08:55:58;102315.69;;;15.97;66.03
28289;BME280;15558;50.874;6.964;2022-09-21T08:58:26;102312.94;;;16.20;65.11
28289;BME280;15558;50.874;6.964;2022-09-21T09:03:52;102311.13;;;16.52;64.51
28289;BME280;15558;50.874;6.964;2022-09-21T09:09:57;102316.50;;;16.54;64.54
28289;BME280;15558;50.874;6.964;2022-09-21T09:16:05;102310.66;;;17.10;64.09
28289;BME280;15558;50.874;6.964;2022-09-21T09:18:33;102316.00;;;17.35;62.54
28289;BME280;15558;50.874;6.964;2022-09-21T09:21:33;102309.31;;;17.62;62.05
28289;BME280;15558;50.874;6.964;2022-09-21T09:26:36;102302.09;;;18.01;59.77
28289;BME280;15558;50.874;6.964;2022-09-21T09:31:45;102302.03;;;18.38;59.59
28289;BME280;15558;50.874;6.964;2022-09-21T09:34:43;102303.84;;;18.61;59.43
28289;BME280;15558;50.874;6.964;2022-09-21T09:37:15;102296.88;;;18.80;58.08
28289;BME280;15558;50.874;6.964;2022-09-21T09:39:46;102295.97;;;18.98;56.31
28289;BME280;15558;50.874;6.964;2022-09-21T09:50:36;102290.78;;;19.48;54.22
28289;BME280;15558;50.874;6.964;2022-09-21T09:53:04;102290.03;;;19.77;53.95
28289;BME280;15558;50.874;6.964;2022-09-21T09:55:36;102291.03;;;19.95;53.75
28289;BME280;15558;50.874;6.964;2022-09-21T09:58:03;102295.38;;;20.14;54.14
28289;BME280;15558;50.874;6.964;2022-09-21T10:00:29;102291.91;;;20.25;52.61
28289;BME280;15558;50.874;6.964;2022-09-21T10:02:56;102273.56;;;20.48;50.30
28289;BME280;15558;50.874;6.964;2022-09-21T10:05:31;102280.19;;;20.57;51.33
28289;BME280;15558;50.874;6.964;2022-09-21T10:07:58;102268.50;;;20.75;50.52
28289;BME280;15558;50.874;6.964;2022-09-21T10:13:30;102272.31;;;21.01;49.18
28289;BME280;15558;50.874;6.964;2022-09-21T10:21:14;102266.19;;;21.41;47.60
28289;BME280;15558;50.874;6.964;2022-09-21T10:23:45;102255.06;;;21.47;46.85
28289;BME280;15558;50.874;6.964;2022-09-21T10:26:12;102261.16;;;21.54;47.68
28289;BME280;15558;50.874;6.964;2022-09-21T10:29:18;102261.81;;;21.68;46.13
28289;BME280;15558;50.874;6.964;2022-09-21T10:34:39;102252.88;;;21.78;44.74
28289;BME280;15558;50.874;6.964;2022-09-21T10:37:31;102259.28;;;21.83;43.69
28289;BME280;15558;50.874;6.964;2022-09-21T10:39:59;102258.78;;;21.90;44.39
28289;BME280;15558;50.874;6.964;2022-09-21T10:42:32;102258.09;;;21.68;43.15
28289;BME280;15558;50.874;6.964;2022-09-21T10:45:14;102256.72;;;21.99;44.15
28289;BME280;15558;50.874;6.964;2022-09-21T10:47:43;102249.84;;;22.17;43.55
28289;BME280;15558;50.874;6.964;2022-09-21T10:50:29;102253.81;;;22.32;42.76
28289;BME280;15558;50.874;6.964;2022-09-21T10:53:09;102250.44;;;22.30;41.97
28289;BME280;15558;50.874;6.964;2022-09-21T10:55:41;102251.41;;;22.43;40.67
28289;BME280;15558;50.874;6.964;2022-09-21T10:58:09;102249.47;;;22.63;40.59
28289;BME280;15558;50.874;6.964;2022-09-21T11:00:42;102257.16;;;22.80;38.51
28289;BME280;15558;50.874;6.964;2022-09-21T11:06:09;102245.69;;;22.80;39.29
28289;BME280;15558;50.874;6.964;2022-09-21T11:16:58;102234.59;;;22.78;40.76
28289;BME280;15558;50.874;6.964;2022-09-21T11:19:43;102232.78;;;23.02;38.95
28289;BME280;15558;50.874;6.964;2022-09-21T11:25:06;102224.78;;;23.16;37.83
28289;BME280;15558;50.874;6.964;2022-09-21T11:27:44;102224.44;;;23.18;37.46
28289;BME280;15558;50.874;6.964;2022-09-21T11:30:18;102225.72;;;23.28;37.87
28289;BME280;15558;50.874;6.964;2022-09-21T11:38:52;102223.16;;;23.56;38.19
28289;BME280;15558;50.874;6.964;2022-09-21T11:41:31;102211.16;;;23.33;38.14
28289;BME280;15558;50.874;6.964;2022-09-21T11:44:24;102212.63;;;23.39;35.60
28289;BME280;15558;50.874;6.964;2022-09-21T11:47:06;102208.44;;;23.37;36.90
28289;BME280;15558;50.874;6.964;2022-09-21T11:52:43;102203.75;;;23.53;38.58
28289;BME280;15558;50.874;6.964;2022-09-21T11:55:17;102199.78;;;23.65;37.43
28289;BME280;15558;50.874;6.964;2022-09-21T11:57:56;102196.19;;;23.68;35.22
28289;BME280;15558;50.874;6.964;2022-09-21T12:00:25;102203.63;;;23.69;34.79
28289;BME280;15558;50.874;6.964;2022-09-21T12:08:43;102195.44;;;22.99;37.26
28289;BME280;15558;50.874;6.964;2022-09-21T12:11:38;102184.59;;;23.04;37.07
28289;BME280;15558;50.874;6.964;2022-09-21T12:19:44;102178.94;;;23.36;37.19
28289;BME280;15558;50.874;6.964;2022-09-21T12:22:21;102177.06;;;23.40;36.94
28289;BME280;15558;50.874;6.964;2022-09-21T12:24:57;102169.03;;;23.34;37.67
28289;BME280;15558;50.874;6.964;2022-09-21T12:27:27;102164.94;;;23.35;37.85
28289;BME280;15558;50.874;6.964;2022-09-21T12:30:19;102167.00;;;23.34;36.40
28289;BME280;15558;50.874;6.964;2022-09-21T12:33:02;102157.59;;;23.25;36.08
28289;BME280;15558;50.874;6.964;2022-09-21T12:35:35;102166.75;;;23.19;37.31
28289;BME280;15558;50.874;6.964;2022-09-21T12:38:17;102161.81;;;23.28;35.79
28289;BME280;15558;50.874;6.964;2022-09-21T12:40:53;102156.78;;;23.25;36.18
28289;BME280;15558;50.874;6.964;2022-09-21T12:43:40;102168.53;;;23.32;38.00
28289;BME280;15558;50.874;6.964;2022-09-21T12:46:28;102147.03;;;23.38;35.63
28289;BME280;15558;50.874;6.964;2022-09-21T12:48:58;102148.50;;;23.44;36.25
28289;BME280;15558;50.874;6.964;2022-09-21T12:51:35;102154.38;;;23.47;37.34
28289;BME280;15558;50.874;6.964;2022-09-21T12:54:11;102143.75;;;23.48;38.99
28289;BME280;15558;50.874;6.964;2022-09-21T12:56:43;102146.41;;;23.53;35.63
28289;BME280;15558;50.874;6.964;2022-09-21T13:01:58;102147.09;;;23.50;35.25
28289;BME280;15558;50.874;6.964;2022-09-21T13:09:42;102142.72;;;22.91;33.58
28289;BME280;15558;50.874;6.964;2022-09-21T13:14:46;102139.38;;;22.61;35.01
28289;BME280;15558;50.874;6.964;2022-09-21T13:17:22;102141.22;;;22.57;35.10
28289;BME280;15558;50.874;6.964;2022-09-21T13:20:03;102129.50;;;22.50;34.80
28289;BME280;15558;50.874;6.964;2022-09-21T13:22:33;102139.25;;;22.57;33.85
28289;BME280;15558;50.874;6.964;2022-09-21T13:25:27;102131.66;;;22.53;34.32
28289;BME280;15558;50.874;6.964;2022-09-21T13:28:01;102126.69;;;22.42;35.88
28289;BME280;15558;50.874;6.964;2022-09-21T13:30:37;102115.50;;;22.28;35.76
28289;BME280;15558;50.874;6.964;2022-09-21T13:36:31;102114.34;;;22.21;36.66
28289;BME280;15558;50.874;6.964;2022-09-21T13:39:14;102108.28;;;22.22;35.80
28289;BME280;15558;50.874;6.964;2022-09-21T13:41:42;102108.91;;;22.28;34.79
28289;BME280;15558;50.874;6.964;2022-09-21T13:44:36;102108.84;;;22.08;34.11
28289;BME280;15558;50.874;6.964;2022-09-21T13:47:02;102118.75;;;22.18;34.15
28289;BME280;15558;50.874;6.964;2022-09-21T13:49:33;102102.41;;;22.19;34.06
28289;BME280;15558;50.874;6.964;2022-09-21T13:54:33;102104.28;;;22.15;33.55
28289;BME280;15558;50.874;6.964;2022-09-21T14:02:39;102090.47;;;22.09;32.48
28289;BME280;15558;50.874;6.964;2022-09-21T14:05:23;102086.97;;;22.03;34.07
28289;BME280;15558;50.874;6.964;2022-09-21T14:08:02;102079.75;;;22.06;34.04
28289;BME280;15558;50.874;6.964;2022-09-21T14:10:32;102089.97;;;22.07;32.43
28289;BME280;15558;50.874;6.964;2022-09-21T14:13:01;102086.38;;;21.89;33.34
28289;BME280;15558;50.874;6.964;2022-09-21T14:15:37;102078.13;;;21.88;33.45
28289;BME280;15558;50.874;6.964;2022-09-21T14:18:34;102080.53;;;21.78;34.18
28289;BME280;15558;50.874;6.964;2022-09-21T14:21:16;102076.81;;;21.77;34.00
28289;BME280;15558;50.874;6.964;2022-09-21T14:24:19;102071.13;;;21.77;31.86
28289;BME280;15558;50.874;6.964;2022-09-21T14:27:01;102077.19;;;21.67;31.88
28289;BME280;15558;50.874;6.964;2022-09-21T14:29:47;102074.34;;;21.67;31.95
28289;BME280;15558;50.874;6.964;2022-09-21T14:32:18;102073.63;;;21.70;32.97
28289;BME280;15558;50.874;6.964;2022-09-21T14:34:48;102062.53;;;21.77;34.53
28289;BME280;15558;50.874;6.964;2022-09-21T14:39:47;102075.13;;;21.76;34.60
28289;BME280;15558;50.874;6.964;2022-09-21T14:42:19;102071.13;;;21.77;33.14
28289;BME280;15558;50.874;6.964;2022-09-21T14:44:50;102069.63;;;21.71;32.29
28289;BME280;15558;50.874;6.964;2022-09-21T14:50:16;102069.16;;;21.52;32.40
28289;BME280;15558;50.874;6.964;2022-09-21T14:56:23;102057.53;;;21.57;31.91
28289;BME280;15558;50.874;6.964;2022-09-21T14:59:02;102057.25;;;21.50;33.92
28289;BME280;15558;50.874;6.964;2022-09-21T15:06:48;102053.19;;;21.51;32.10
28289;BME280;15558;50.874;6.964;2022-09-21T15:13:04;102055.72;;;21.53;34.95
28289;BME280;15558;50.874;6.964;2022-09-21T15:18:40;102043.81;;;21.43;37.51
28289;BME280;15558;50.874;6.964;2022-09-21T15:21:26;102040.28;;;21.46;38.47
28289;BME280;15558;50.874;6.964;2022-09-21T15:23:52;102040.28;;;21.46;39.79
28289;BME280;15558;50.874;6.964;2022-09-21T15:26:23;102039.94;;;21.39;39.22
28289;BME280;15558;50.874;6.964;2022-09-21T15:28:59;102041.44;;;21.36;37.55
28289;BME280;15558;50.874;6.964;2022-09-21T15:31:33;102032.38;;;21.34;38.08
28289;BME280;15558;50.874;6.964;2022-09-21T15:34:03;102039.94;;;21.39;38.33
28289;BME280;15558;50.874;6.964;2022-09-21T15:36:30;102036.44;;;21.33;38.13
28289;BME280;15558;50.874;6.964;2022-09-21T15:38:58;102033.06;;;21.31;39.15